Time;durP1;ratioP1;P1;durP2;ratioP2;P2;SDS_P1;SDS_P2;PMS_P1;PMS_P2;Temp;Humidity;BMP_temperature;BMP_pressure;BME280_temperature;BME280_humidity;BME280_pressure;Samples;Min_cycle;Max_cycle;Signal;HPM_P1;HPM_P2
2024/02/20 00:00:15;;;;;;;28.98;5.32;;;7.10;99.90;;;;;;4875049;29;20036;-78
2024/02/20 00:02:44;;;;;;;19.77;6.43;;;7.10;99.90;;;;;;4890580;29;20048;-78
2024/02/20 00:05:11;;;;;;;25.77;5.53;;;7.00;99.90;;;;;;4889656;29;20056;-77
2024/02/20 00:07:40;;;;;;;17.60;4.47;;;7.00;99.90;;;;;;4875071;29;20052;-78
2024/02/20 00:10:10;;;;;;;16.58;2.90;;;7.00;99.90;;;;;;4872125;29;20047;-78
2024/02/20 00:12:37;;;;;;;15.45;3.63;;;7.00;99.90;;;;;;4902443;29;20055;-79
2024/02/20 00:15:06;;;;;;;22.92;5.50;;;7.00;99.90;;;;;;4880446;29;20052;-79
2024/02/20 00:17:35;;;;;;;29.23;6.47;;;7.10;99.90;;;;;;4898907;29;20048;-80
2024/02/20 00:20:07;;;;;;;17.83;3.25;;;7.10;99.90;;;;;;4870260;29;20052;-79
2024/02/20 00:22:35;;;;;;;30.27;5.47;;;7.00;99.90;;;;;;4873142;29;20049;-76
2024/02/20 00:25:05;;;;;;;41.95;5.22;;;6.90;99.90;;;;;;4885195;29;20045;-79
2024/02/20 00:27:37;;;;;;;23.67;6.35;;;6.80;99.90;;;;;;4877377;29;20048;-79
2024/02/20 00:30:06;;;;;;;18.15;4.40;;;6.70;99.90;;;;;;4871134;29;20643;-79
2024/02/20 00:32:33;;;;;;;17.85;3.45;;;6.70;99.90;;;;;;4874910;29;20049;-79
2024/02/20 00:35:01;;;;;;;27.88;4.35;;;6.60;99.90;;;;;;4852909;29;20109;-79
2024/02/20 00:37:30;;;;;;;14.93;3.42;;;6.60;99.90;;;;;;4879625;29;20119;-79
2024/02/20 00:39:58;;;;;;;27.67;5.28;;;6.50;99.90;;;;;;4876949;29;20496;-79
2024/02/20 00:42:26;;;;;;;19.95;4.82;;;6.50;99.90;;;;;;4866534;29;20524;-80
2024/02/20 00:44:54;;;;;;;14.50;3.63;;;6.30;99.90;;;;;;4861303;29;20056;-79
2024/02/20 00:47:22;;;;;;;17.55;3.90;;;6.30;99.90;;;;;;4886805;29;20057;-78
2024/02/20 00:49:49;;;;;;;23.65;4.60;;;6.30;99.90;;;;;;4857698;29;20056;-79
2024/02/20 00:52:16;;;;;;;15.93;3.88;;;6.20;99.90;;;;;;4887402;29;20049;-79
2024/02/20 00:54:46;;;;;;;17.25;2.70;;;6.10;99.90;;;;;;4858649;29;20047;-79
2024/02/20 00:57:14;;;;;;;11.32;2.88;;;6.10;99.90;;;;;;4881391;29;20124;-79
2024/02/20 00:59:41;;;;;;;33.35;5.68;;;6.00;99.90;;;;;;4890886;29;20428;-79
2024/02/20 01:02:10;;;;;;;28.48;5.45;;;6.00;99.90;;;;;;4895161;29;20048;-79
2024/02/20 01:04:41;;;;;;;15.43;3.72;;;6.00;99.90;;;;;;4902181;29;20044;-79
2024/02/20 01:07:20;;;;;;;19.27;4.38;;;6.00;99.90;;;;;;4881878;29;20124;-79
2024/02/20 01:09:47;;;;;;;19.83;4.65;;;6.00;99.90;;;;;;4868396;29;20060;-79
2024/02/20 01:12:19;;;;;;;23.83;5.47;;;6.00;99.90;;;;;;4883296;29;20411;-79
2024/02/20 01:14:48;;;;;;;38.00;7.28;;;5.90;99.90;;;;;;4882908;29;20060;-79
2024/02/20 01:17:15;;;;;;;21.90;4.95;;;5.90;99.90;;;;;;4891149;29;20523;-80
2024/02/20 01:19:43;;;;;;;12.60;4.30;;;5.90;99.90;;;;;;4866999;29;20057;-79
2024/02/20 01:22:10;;;;;;;23.50;4.57;;;5.90;99.90;;;;;;4881249;29;20041;-79
2024/02/20 01:24:37;;;;;;;21.20;3.55;;;6.00;99.90;;;;;;4900059;29;20044;-79
2024/02/20 01:27:05;;;;;;;27.63;6.03;;;5.90;99.90;;;;;;4890648;29;20055;-79
2024/02/20 01:29:34;;;;;;;18.70;4.82;;;5.80;99.90;;;;;;4886184;29;20085;-79
2024/02/20 01:32:01;;;;;;;7.95;3.10;;;5.80;99.90;;;;;;4852789;29;20060;-79
2024/02/20 01:34:30;;;;;;;19.15;3.88;;;5.80;99.90;;;;;;4872847;29;20053;-79
2024/02/20 01:36:58;;;;;;;22.65;3.65;;;5.80;99.90;;;;;;4865091;29;20072;-79
2024/02/20 01:39:26;;;;;;;28.50;6.05;;;5.80;99.90;;;;;;4895442;29;20041;-79
2024/02/20 01:41:53;;;;;;;17.33;3.90;;;5.80;99.90;;;;;;4896991;29;20052;-79
2024/02/20 01:44:23;;;;;;;29.42;4.57;;;5.90;99.90;;;;;;4871303;29;20040;-80
2024/02/20 01:46:52;;;;;;;24.70;5.70;;;5.90;99.90;;;;;;4866553;29;20056;-78
2024/02/20 01:49:19;;;;;;;20.52;3.80;;;5.90;99.90;;;;;;4866085;29;20500;-78
2024/02/20 01:51:47;;;;;;;27.77;5.75;;;5.90;99.90;;;;;;4859425;29;20063;-79
2024/02/20 01:54:14;;;;;;;15.05;2.85;;;6.00;99.90;;;;;;4903620;29;20060;-79
2024/02/20 01:56:43;;;;;;;12.55;3.00;;;6.00;99.90;;;;;;4893096;29;20040;-79
2024/02/20 01:59:10;;;;;;;14.57;4.20;;;6.00;99.90;;;;;;4901763;29;20063;-79
2024/02/20 02:01:39;;;;;;;17.17;3.40;;;6.00;99.90;;;;;;4906733;29;20059;-79
2024/02/20 02:04:07;;;;;;;17.13;3.50;;;6.00;99.90;;;;;;4900394;29;20047;-79
2024/02/20 02:06:38;;;;;;;29.48;4.38;;;6.00;99.90;;;;;;4883058;29;20149;-78
2024/02/20 02:09:07;;;;;;;17.92;4.97;;;6.00;99.90;;;;;;4891329;29;20056;-78
2024/02/20 02:11:36;;;;;;;12.70;3.10;;;6.00;99.90;;;;;;4888586;29;20528;-80
2024/02/20 02:14:03;;;;;;;27.17;4.63;;;6.10;99.90;;;;;;4880921;29;20052;-78
2024/02/20 02:16:31;;;;;;;19.02;4.60;;;6.10;99.90;;;;;;4880044;29;20063;-77
2024/02/20 02:19:02;;;;;;;19.00;5.22;;;6.10;99.90;;;;;;4854999;29;20049;-77
2024/02/20 02:21:30;;;;;;;11.10;3.22;;;6.10;99.90;;;;;;4861458;29;20496;-79
2024/02/20 02:23:58;;;;;;;23.73;3.22;;;6.10;99.90;;;;;;4848275;29;20127;-79
2024/02/20 02:26:25;;;;;;;14.05;3.65;;;6.10;99.90;;;;;;4839130;29;20055;-79
2024/02/20 02:28:54;;;;;;;21.38;4.22;;;6.10;99.90;;;;;;4894736;29;20044;-78
2024/02/20 02:31:23;;;;;;;14.70;3.67;;;6.10;99.90;;;;;;4892581;29;20056;-78
2024/02/20 02:33:52;;;;;;;27.15;5.32;;;6.10;99.90;;;;;;4870207;29;20088;-79
2024/02/20 02:36:21;;;;;;;15.02;3.20;;;6.10;99.90;;;;;;4866806;29;20059;-78
2024/02/20 02:38:54;;;;;;;19.45;4.88;;;6.10;99.90;;;;;;4890922;29;20044;-79
2024/02/20 02:41:22;;;;;;;16.98;3.65;;;6.10;99.90;;;;;;4859898;29;20052;-79
2024/02/20 02:43:50;;;;;;;15.88;4.03;;;6.20;99.90;;;;;;4878594;29;20059;-78
2024/02/20 02:46:18;;;;;;;26.55;7.35;;;6.20;99.90;;;;;;4904331;29;20123;-78
2024/02/20 02:48:50;;;;;;;;;;;6.10;99.90;;;;;;4873389;29;20044;-79
2024/02/20 02:51:18;;;;;;;9.85;2.83;;;6.30;99.90;;;;;;4913990;29;20018;-79
2024/02/20 02:53:47;;;;;;;13.43;2.78;;;6.10;99.90;;;;;;4866168;29;20048;-79
2024/02/20 02:56:14;;;;;;;26.25;5.18;;;6.10;99.90;;;;;;4890695;29;20077;-77
2024/02/20 02:58:41;;;;;;;20.65;4.40;;;6.10;99.90;;;;;;4883062;29;20040;-78
2024/02/20 03:01:09;;;;;;;18.98;3.85;;;6.20;99.90;;;;;;4888997;29;20104;-78
2024/02/20 03:03:37;;;;;;;17.85;4.38;;;6.20;99.90;;;;;;4911867;29;20055;-78
2024/02/20 03:06:08;;;;;;;7.93;2.20;;;6.20;99.90;;;;;;4879951;29;20061;-78
2024/02/20 03:08:37;;;;;;;12.05;2.70;;;6.20;99.90;;;;;;4913044;29;20059;-79
2024/02/20 03:11:06;;;;;;;26.50;4.65;;;6.20;99.90;;;;;;4886434;29;20111;-79
2024/02/20 03:13:34;;;;;;;12.13;3.10;;;6.40;99.90;;;;;;4902370;29;20060;-79
2024/02/20 03:16:02;;;;;;;21.48;4.72;;;6.20;99.90;;;;;;4916317;29;20068;-79
2024/02/20 03:18:32;;;;;;;21.52;5.18;;;6.10;99.90;;;;;;4884110;29;20051;-79
2024/02/20 03:21:01;;;;;;;18.80;3.75;;;6.20;99.90;;;;;;4918189;29;20576;-79
2024/02/20 03:23:30;;;;;;;18.27;4.93;;;6.10;99.90;;;;;;4885289;29;20534;-79
2024/02/20 03:25:58;;;;;;;27.58;3.80;;;6.10;99.90;;;;;;4901265;29;20075;-80
2024/02/20 03:28:33;;;;;;;27.15;3.50;;;6.10;99.90;;;;;;4898774;29;20510;-80
2024/02/20 03:31:00;;;;;;;16.08;3.50;;;6.10;99.90;;;;;;4897772;29;20123;-80
2024/02/20 03:33:30;;;;;;;11.75;3.60;;;6.10;99.90;;;;;;4888675;29;20043;-79
2024/02/20 03:35:57;;;;;;;12.95;2.88;;;6.00;99.90;;;;;;4867784;29;20053;-78
2024/02/20 03:38:27;;;;;;;16.25;3.47;;;6.00;99.90;;;;;;4885008;29;20072;-79
2024/02/20 03:40:56;;;;;;;16.25;2.85;;;6.00;99.90;;;;;;4883613;29;20048;-79
2024/02/20 03:43:26;;;;;;;15.80;3.50;;;6.00;99.90;;;;;;4864395;29;20045;-78
2024/02/20 03:45:56;;;;;;;15.43;3.03;;;5.90;99.90;;;;;;4875729;29;20052;-78
2024/02/20 03:48:24;;;;;;;16.05;6.93;;;5.90;99.90;;;;;;4867671;29;20044;-78
2024/02/20 03:50:51;;;;;;;13.68;2.38;;;5.90;99.90;;;;;;4915317;29;20712;-78
2024/02/20 03:53:20;;;;;;;15.80;4.03;;;5.90;99.90;;;;;;4876811;29;20052;-79
2024/02/20 03:55:48;;;;;;;13.55;3.47;;;5.90;99.90;;;;;;4875796;29;20064;-79
2024/02/20 03:58:22;;;;;;;14.27;3.83;;;5.80;99.90;;;;;;4873774;29;20054;-78
2024/02/20 04:00:50;;;;;;;6.30;1.90;;;5.80;99.90;;;;;;4885401;29;20059;-79
2024/02/20 04:03:19;;;;;;;9.70;2.15;;;5.70;99.90;;;;;;4903963;29;20135;-79
2024/02/20 04:05:47;;;;;;;7.13;2.42;;;5.80;99.90;;;;;;4900939;29;20155;-79
2024/02/20 04:08:15;;;;;;;15.20;2.85;;;5.70;99.90;;;;;;4902292;29;20048;-78
2024/02/20 04:10:42;;;;;;;13.25;3.30;;;5.70;99.90;;;;;;4894669;29;20049;-77
2024/02/20 04:13:11;;;;;;;13.45;3.78;;;5.70;99.90;;;;;;4878391;29;20056;-78
2024/02/20 04:15:38;;;;;;;11.65;3.95;;;5.70;99.90;;;;;;4884551;29;20127;-78
2024/02/20 04:18:06;;;;;;;23.35;3.25;;;5.70;99.90;;;;;;4893184;29;20052;-77
2024/02/20 04:20:33;;;;;;;13.07;3.42;;;5.60;99.90;;;;;;4881595;29;20040;-78
2024/02/20 04:23:03;;;;;;;9.45;3.13;;;5.70;99.90;;;;;;4869730;29;20052;-78
2024/02/20 04:25:31;;;;;;;18.63;3.03;;;5.70;99.90;;;;;;4882836;29;20041;-78
2024/02/20 04:27:58;;;;;;;6.82;2.65;;;5.70;99.90;;;;;;4866712;29;20500;-79
2024/02/20 04:30:26;;;;;;;20.92;3.17;;;5.60;99.90;;;;;;4894949;29;20123;-79
2024/02/20 04:32:53;;;;;;;16.30;4.45;;;5.60;99.90;;;;;;4875871;29;20063;-79
2024/02/20 04:35:20;;;;;;;13.30;2.47;;;5.60;99.90;;;;;;4887941;29;20056;-79
2024/02/20 04:37:48;;;;;;;12.45;5.63;;;5.60;99.90;;;;;;4898244;29;20055;-79
2024/02/20 04:40:18;;;;;;;10.32;3.17;;;5.60;99.90;;;;;;4885246;29;20415;-79
2024/02/20 04:42:45;;;;;;;11.73;2.70;;;5.60;99.90;;;;;;4887102;29;20040;-79
2024/02/20 04:45:12;;;;;;;14.18;4.97;;;5.70;99.90;;;;;;4881722;29;20582;-79
2024/02/20 04:47:40;;;;;;;3.80;2.88;;;5.60;99.90;;;;;;4868088;29;20052;-79
2024/02/20 04:50:07;;;;;;;13.50;3.40;;;5.60;99.90;;;;;;4883868;29;20053;-79
2024/02/20 04:52:37;;;;;;;12.85;4.53;;;5.60;99.90;;;;;;4914113;29;20067;-78
2024/02/20 04:55:05;;;;;;;11.02;3.40;;;5.60;99.90;;;;;;4896108;29;20598;-79
2024/02/20 04:57:32;;;;;;;18.42;4.15;;;5.60;99.90;;;;;;4887667;29;20048;-78
2024/02/20 05:00:00;;;;;;;14.45;2.63;;;5.60;99.90;;;;;;4868235;29;20040;-78
2024/02/20 05:02:27;;;;;;;15.32;3.22;;;5.60;99.90;;;;;;4866350;29;20109;-78
2024/02/20 05:04:56;;;;;;;26.25;5.28;;;5.50;99.90;;;;;;4898571;29;20052;-78
2024/02/20 05:07:23;;;;;;;13.35;3.22;;;5.50;99.90;;;;;;4882546;29;20044;-77
2024/02/20 05:09:50;;;;;;;7.78;2.88;;;5.50;99.90;;;;;;4905390;29;20139;-79
2024/02/20 05:12:20;;;;;;;8.85;2.67;;;5.40;99.90;;;;;;4841062;29;20502;-79
2024/02/20 05:14:48;;;;;;;12.93;3.13;;;5.40;99.90;;;;;;4892621;29;20052;-79
2024/02/20 05:17:15;;;;;;;8.55;2.28;;;5.40;99.90;;;;;;4885489;29;20052;-79
2024/02/20 05:19:42;;;;;;;7.43;2.30;;;5.40;99.90;;;;;;4899011;29;20510;-79
2024/02/20 05:22:12;;;;;;;4.78;1.58;;;5.40;99.90;;;;;;4886689;29;20056;-78
2024/02/20 05:24:42;;;;;;;25.80;3.70;;;5.40;99.90;;;;;;4897829;29;20050;-78
2024/02/20 05:27:10;;;;;;;13.77;3.30;;;5.40;99.90;;;;;;4889173;29;20472;-79
2024/02/20 05:29:38;;;;;;;6.10;1.83;;;5.40;99.90;;;;;;4915019;29;20403;-79
2024/02/20 05:32:07;;;;;;;5.35;2.15;;;5.50;99.90;;;;;;4878339;29;20051;-79
2024/02/20 05:34:34;;;;;;;13.73;2.53;;;5.50;99.90;;;;;;4882025;29;20071;-79
2024/02/20 05:37:01;;;;;;;11.98;3.25;;;5.50;99.90;;;;;;4901983;29;20131;-79
2024/02/20 05:39:31;;;;;;;8.90;2.90;;;5.50;99.90;;;;;;4908250;29;20052;-78
2024/02/20 05:41:58;;;;;;;11.75;2.67;;;5.50;99.90;;;;;;4870757;29;20040;-78
2024/02/20 05:44:25;;;;;;;22.90;4.32;;;5.50;99.90;;;;;;4882928;29;20044;-78
2024/02/20 05:46:52;;;;;;;9.95;3.85;;;5.50;99.90;;;;;;4864185;29;20052;-78
2024/02/20 05:49:21;;;;;;;12.35;2.83;;;5.30;99.90;;;;;;4883861;29;20045;-78
2024/02/20 05:51:49;;;;;;;5.13;1.48;;;5.50;99.90;;;;;;4903121;29;20086;-79
2024/02/20 05:54:16;;;;;;;19.98;3.78;;;5.50;99.90;;;;;;4888049;29;20052;-79
2024/02/20 05:56:46;;;;;;;8.70;2.85;;;5.50;99.90;;;;;;4878100;29;20053;-79
2024/02/20 05:59:14;;;;;;;10.52;2.75;;;5.50;99.90;;;;;;4852450;29;20053;-79
2024/02/20 06:01:41;;;;;;;10.70;2.65;;;5.50;99.90;;;;;;4873726;29;20097;-79
2024/02/20 06:04:09;;;;;;;5.72;1.92;;;5.50;99.90;;;;;;4874013;29;20081;-79
2024/02/20 06:06:36;;;;;;;15.52;2.67;;;5.50;99.90;;;;;;4897827;29;20482;-79
2024/02/20 06:09:04;;;;;;;22.10;3.75;;;5.50;99.90;;;;;;4911090;29;20036;-78
2024/02/20 06:11:34;;;;;;;11.10;2.67;;;5.50;99.90;;;;;;4891159;29;20512;-79
2024/02/20 06:14:02;;;;;;;10.95;3.22;;;5.50;99.90;;;;;;4874940;29;20052;-77
2024/02/20 06:16:29;;;;;;;15.70;3.40;;;5.50;99.90;;;;;;4887716;29;20508;-78
2024/02/20 06:18:57;;;;;;;8.25;2.70;;;5.50;99.90;;;;;;4871697;29;20059;-79
2024/02/20 06:21:25;;;;;;;7.00;2.03;;;5.50;99.90;;;;;;4883482;29;20430;-79
2024/02/20 06:23:53;;;;;;;12.57;3.40;;;5.50;99.90;;;;;;4883810;29;20357;-79
2024/02/20 06:26:22;;;;;;;12.80;1.90;;;5.50;99.90;;;;;;4856011;29;20052;-79
2024/02/20 06:28:49;;;;;;;15.88;3.33;;;5.50;99.90;;;;;;4894330;29;20051;-79
2024/02/20 06:31:17;;;;;;;10.10;3.53;;;5.50;99.90;;;;;;4863779;29;20053;-80
2024/02/20 06:33:45;;;;;;;10.15;2.42;;;5.60;99.90;;;;;;4852330;29;20059;-78
2024/02/20 06:36:12;;;;;;;9.20;4.20;;;5.60;99.90;;;;;;4904990;29;20044;-77
2024/02/20 06:38:41;;;;;;;17.45;3.15;;;5.70;99.90;;;;;;4863227;29;20501;-79
2024/02/20 06:41:09;;;;;;;8.20;2.30;;;5.70;99.90;;;;;;4865143;29;20112;-79
2024/02/20 06:43:38;;;;;;;16.80;2.78;;;5.80;99.90;;;;;;4882682;29;20044;-79
2024/02/20 06:46:06;;;;;;;7.25;1.73;;;5.80;99.90;;;;;;4890354;29;20516;-78
2024/02/20 06:48:33;;;;;;;5.85;2.38;;;5.80;99.90;;;;;;4900613;29;20111;-79
2024/02/20 06:51:03;;;;;;;18.27;5.40;;;5.80;99.90;;;;;;4883224;29;20049;-78
2024/02/20 06:53:32;;;;;;;12.75;2.95;;;5.80;99.90;;;;;;4889143;29;20067;-79
2024/02/20 06:56:00;;;;;;;12.40;2.85;;;5.90;99.90;;;;;;4895697;29;20048;-79
2024/02/20 06:58:29;;;;;;;20.35;4.28;;;5.90;99.90;;;;;;4898027;29;20051;-78
2024/02/20 07:00:57;;;;;;;18.40;3.33;;;5.90;99.90;;;;;;4897980;29;20041;-78
2024/02/20 07:03:26;;;;;;;16.33;4.07;;;5.90;99.90;;;;;;4868532;29;20539;-79
2024/02/20 07:05:54;;;;;;;8.57;2.75;;;6.00;99.90;;;;;;4881197;29;20045;-79
2024/02/20 07:08:22;;;;;;;15.18;3.70;;;6.30;99.90;;;;;;4874862;29;20123;-79
2024/02/20 07:10:49;;;;;;;8.45;1.85;;;6.10;99.90;;;;;;4880858;29;20507;-79
2024/02/20 07:13:18;;;;;;;16.17;3.13;;;6.10;99.90;;;;;;4888496;29;20496;-79
2024/02/20 07:15:46;;;;;;;9.05;2.95;;;6.10;99.90;;;;;;4874767;29;20058;-79
2024/02/20 07:18:13;;;;;;;15.05;3.40;;;6.20;99.90;;;;;;4899468;29;20056;-79
2024/02/20 07:20:42;;;;;;;14.70;2.67;;;6.20;99.90;;;;;;4864473;29;20036;-79
2024/02/20 07:23:09;;;;;;;1.65;0.93;;;6.30;99.90;;;;;;4898197;29;20045;-79
2024/02/20 07:25:36;;;;;;;14.63;4.55;;;6.30;99.90;;;;;;4907807;29;20496;-79
2024/02/20 07:28:06;;;;;;;13.02;4.20;;;6.30;99.90;;;;;;4887443;29;20059;-78
2024/02/20 07:30:33;;;;;;;14.57;3.70;;;6.40;99.90;;;;;;4887244;29;20055;-79
2024/02/20 07:33:00;;;;;;;9.38;3.10;;;6.50;99.90;;;;;;4874884;29;20044;-79
2024/02/20 07:35:28;;;;;;;15.38;4.03;;;6.50;99.90;;;;;;4914140;29;20911;-78
2024/02/20 07:37:56;;;;;;;17.90;4.07;;;6.50;99.90;;;;;;4878331;29;20143;-78
2024/02/20 07:40:23;;;;;;;10.50;3.08;;;6.60;99.90;;;;;;4884556;29;20575;-79
2024/02/20 07:42:51;;;;;;;14.77;3.55;;;6.70;99.90;;;;;;4879910;29;20048;-79
2024/02/20 07:45:20;;;;;;;13.20;3.55;;;6.80;99.90;;;;;;4890144;29;20041;-78
2024/02/20 07:47:47;;;;;;;5.00;1.55;;;6.80;99.90;;;;;;4884379;29;20417;-79
2024/02/20 07:50:16;;;;;;;5.78;2.13;;;6.90;99.90;;;;;;4890524;29;20096;-79
2024/02/20 07:52:45;;;;;;;14.65;2.95;;;6.90;99.90;;;;;;4891381;29;20135;-78
2024/02/20 07:55:13;;;;;;;10.02;2.58;;;6.90;99.90;;;;;;4909905;29;20056;-79
2024/02/20 07:57:40;;;;;;;16.88;3.05;;;7.00;99.90;;;;;;4896255;29;20381;-79
2024/02/20 08:00:11;;;;;;;8.00;2.65;;;7.00;99.90;;;;;;4899768;29;20467;-77
2024/02/20 08:02:39;;;;;;;9.77;3.10;;;7.10;99.90;;;;;;4904541;29;20037;-77
2024/02/20 08:05:08;;;;;;;16.58;4.15;;;7.10;99.90;;;;;;4906985;29;20064;-78
2024/02/20 08:07:38;;;;;;;12.02;3.40;;;7.10;99.90;;;;;;4883747;29;20571;-77
2024/02/20 08:10:07;;;;;;;6.20;2.10;;;7.10;99.90;;;;;;4876177;29;20127;-78
2024/02/20 08:12:34;;;;;;;5.10;1.30;;;7.10;99.90;;;;;;4900250;29;20052;-78
2024/02/20 08:15:03;;;;;;;8.35;3.00;;;7.20;99.90;;;;;;4911969;29;20048;-78
2024/02/20 08:17:30;;;;;;;10.80;3.63;;;7.20;99.90;;;;;;4879383;29;20061;-78
2024/02/20 08:19:57;;;;;;;9.50;2.45;;;7.30;99.90;;;;;;4904933;29;20214;-80
2024/02/20 08:22:24;;;;;;;10.75;3.20;;;7.30;99.90;;;;;;4892507;29;20044;-78
2024/02/20 08:24:53;;;;;;;10.10;3.00;;;7.30;99.90;;;;;;4882326;29;20496;-78
2024/02/20 08:27:21;;;;;;;5.88;2.67;;;7.40;99.90;;;;;;4880911;29;20044;-79
2024/02/20 08:29:49;;;;;;;7.43;2.33;;;7.40;99.90;;;;;;4902796;29;20044;-78
2024/02/20 08:32:16;;;;;;;22.95;4.53;;;7.50;99.90;;;;;;4878036;29;20060;-78
2024/02/20 08:34:43;;;;;;;13.68;3.80;;;7.50;99.90;;;;;;4877916;29;20059;-79
2024/02/20 08:37:11;;;;;;;18.08;3.17;;;7.50;99.90;;;;;;4899492;29;20033;-79
2024/02/20 08:39:38;;;;;;;16.33;4.28;;;7.50;99.90;;;;;;4885782;29;20491;-78
2024/02/20 08:42:05;;;;;;;12.43;2.53;;;7.60;99.90;;;;;;4903755;29;20507;-79
2024/02/20 08:44:33;;;;;;;17.63;4.10;;;7.70;99.90;;;;;;4910863;29;20040;-78
2024/02/20 08:47:00;;;;;;;13.15;2.80;;;7.70;99.90;;;;;;4886878;29;20507;-78
2024/02/20 08:49:28;;;;;;;10.65;4.00;;;7.80;99.90;;;;;;4866613;29;20179;-78
2024/02/20 08:52:02;;;;;;;17.17;4.78;;;7.80;99.90;;;;;;4897355;29;20055;-77
2024/02/20 08:54:29;;;;;;;13.23;3.67;;;7.90;99.90;;;;;;4874926;29;20071;-78
2024/02/20 08:56:56;;;;;;;14.02;5.57;;;7.90;99.90;;;;;;4889970;29;20534;-78
2024/02/20 08:59:24;;;;;;;11.52;4.35;;;8.00;99.90;;;;;;4882976;29;20052;-79
2024/02/20 09:01:51;;;;;;;8.77;3.60;;;8.00;99.90;;;;;;4893230;29;20465;-79
2024/02/20 09:04:19;;;;;;;14.35;3.38;;;8.10;99.90;;;;;;4887810;29;20093;-79
2024/02/20 09:06:47;;;;;;;9.90;2.10;;;8.20;99.90;;;;;;4881886;29;20500;-79
2024/02/20 09:09:16;;;;;;;23.52;6.10;;;8.30;99.90;;;;;;4896150;29;20191;-79
2024/02/20 09:11:49;;;;;;;18.73;5.07;;;8.40;99.90;;;;;;4885286;29;20060;-78
2024/02/20 09:14:19;;;;;;;14.15;7.07;;;8.40;99.90;;;;;;4848099;29;20139;-78
2024/02/20 09:16:47;;;;;;;19.58;6.35;;;8.50;99.90;;;;;;4891359;29;20103;-78
2024/02/20 09:19:15;;;;;;;12.45;5.22;;;8.60;99.90;;;;;;4883281;29;21186;-79
2024/02/20 09:21:43;;;;;;;15.80;5.45;;;8.60;99.90;;;;;;4867045;29;20052;-80
2024/02/20 09:24:13;;;;;;;17.58;7.43;;;8.60;99.90;;;;;;4881556;29;20045;-79
2024/02/20 09:26:40;;;;;;;22.73;7.05;;;8.60;99.90;;;;;;4898982;29;20040;-78
2024/02/20 09:29:15;;;;;;;19.15;7.40;;;8.70;99.90;;;;;;4875838;29;20462;-79
2024/02/20 09:31:42;;;;;;;12.05;4.97;;;8.70;99.90;;;;;;4889276;29;20047;-79
2024/02/20 09:34:09;;;;;;;17.77;7.32;;;8.80;99.90;;;;;;4903196;29;20081;-79
2024/02/20 09:36:37;;;;;;;23.00;6.90;;;8.80;99.90;;;;;;4883217;29;20428;-79
2024/02/20 09:39:05;;;;;;;18.17;6.05;;;8.90;99.90;;;;;;4914699;29;20138;-79
2024/02/20 09:41:37;;;;;;;17.27;7.65;;;8.90;99.90;;;;;;4864382;29;20037;-78
2024/02/20 09:44:05;;;;;;;21.77;7.93;;;9.00;99.90;;;;;;4897520;29;20839;-79
2024/02/20 09:46:55;;;;;;;9.27;5.00;;;9.10;99.90;;;;;;4877945;29;20048;-79
2024/02/20 09:49:22;;;;;;;19.15;6.97;;;9.10;99.90;;;;;;4881571;29;20103;-78
2024/02/20 09:51:50;;;;;;;19.98;6.38;;;9.20;99.90;;;;;;4913725;29;20503;-79
2024/02/20 09:54:18;;;;;;;15.88;5.40;;;9.20;99.90;;;;;;4909941;29;20108;-78
2024/02/20 09:56:47;;;;;;;24.30;9.20;;;9.30;99.90;;;;;;4885042;29;20060;-78
2024/02/20 09:59:15;;;;;;;16.38;7.20;;;9.20;99.90;;;;;;4892858;29;20040;-78
2024/02/20 10:01:43;;;;;;;16.55;6.82;;;9.20;99.90;;;;;;4900534;29;20047;-79
2024/02/20 10:04:11;;;;;;;15.05;6.28;;;9.30;99.90;;;;;;4882364;29;20508;-79
2024/02/20 10:06:38;;;;;;;12.82;5.72;;;9.30;99.90;;;;;;4884535;29;20045;-78
2024/02/20 10:09:05;;;;;;;17.80;8.52;;;9.30;99.90;;;;;;4908442;29;20504;-78
2024/02/20 10:11:38;;;;;;;17.15;7.38;;;9.30;99.90;;;;;;4887570;29;20032;-79
2024/02/20 10:14:06;;;;;;;24.90;8.55;;;9.40;99.90;;;;;;4896786;29;20052;-79
2024/02/20 10:16:34;;;;;;;21.35;9.02;;;9.40;99.90;;;;;;4886044;29;20075;-79
2024/02/20 10:19:04;;;;;;;25.60;11.95;;;9.40;99.90;;;;;;4887422;29;20118;-78
2024/02/20 10:21:31;;;;;;;16.95;6.88;;;9.40;99.90;;;;;;4895313;29;20053;-79
2024/02/20 10:24:03;;;;;;;18.83;6.88;;;9.10;99.90;;;;;;4905124;29;20075;-79
2024/02/20 10:26:37;;;;;;;20.20;8.60;;;9.50;99.90;;;;;;4901639;29;20134;-79
2024/02/20 10:29:05;;;;;;;16.40;8.40;;;9.60;99.90;;;;;;4907958;29;20522;-79
2024/02/20 10:31:33;;;;;;;23.05;9.25;;;9.50;99.90;;;;;;4898023;29;20663;-79
2024/02/20 10:34:01;;;;;;;12.07;5.22;;;9.60;99.90;;;;;;4890006;29;20121;-79
2024/02/20 10:36:32;;;;;;;16.27;7.88;;;9.60;99.90;;;;;;4870449;29;20036;-79
2024/02/20 10:39:12;;;;;;;23.73;6.70;;;9.60;99.90;;;;;;4910094;29;20190;-78
2024/02/20 10:41:41;;;;;;;21.20;10.60;;;9.70;99.90;;;;;;4867215;29;20097;-79
2024/02/20 10:44:08;;;;;;;14.60;7.20;;;9.70;99.90;;;;;;4910268;29;20044;-78
2024/02/20 10:46:39;;;;;;;25.08;9.23;;;9.70;99.90;;;;;;4894508;29;20097;-78
2024/02/20 10:49:19;;;;;;;20.40;10.60;;;9.70;99.90;;;;;;4895813;29;20500;-79
2024/02/20 10:51:48;;;;;;;10.82;6.63;;;9.70;99.90;;;;;;4883941;29;20076;-79
2024/02/20 10:54:17;;;;;;;14.98;7.22;;;9.80;99.90;;;;;;4906938;29;20056;-79
2024/02/20 10:56:47;;;;;;;27.25;10.32;;;9.80;99.90;;;;;;4899328;29;20044;-79
2024/02/20 10:59:21;;;;;;;14.80;7.13;;;9.90;99.90;;;;;;4884698;29;20052;-78
2024/02/20 11:01:48;;;;;;;18.17;7.30;;;10.00;99.90;;;;;;4890609;29;20131;-78
2024/02/20 11:04:17;;;;;;;17.73;8.57;;;10.00;99.90;;;;;;4867389;29;20040;-79
2024/02/20 11:06:48;;;;;;;14.63;7.70;;;10.10;99.90;;;;;;4876895;29;20040;-78
2024/02/20 11:09:17;;;;;;;23.98;12.13;;;10.20;99.90;;;;;;4895627;29;20048;-79
2024/02/20 11:11:45;;;;;;;19.13;8.02;;;10.20;99.90;;;;;;4895437;29;20047;-79
2024/02/20 11:14:24;;;;;;;22.00;9.63;;;10.20;99.90;;;;;;4898233;29;20551;-78
2024/02/20 11:16:51;;;;;;;10.90;6.13;;;10.30;99.90;;;;;;4877824;29;20048;-79
2024/02/20 11:19:25;;;;;;;17.80;6.45;;;10.40;99.90;;;;;;4879959;29;20138;-79
2024/02/20 11:21:53;;;;;;;14.63;6.75;;;10.40;99.90;;;;;;4887127;29;20040;-79
2024/02/20 11:24:30;;;;;;;22.63;10.52;;;10.60;99.90;;;;;;4882361;29;20152;-79
2024/02/20 11:27:03;;;;;;;23.05;10.50;;;10.70;99.90;;;;;;4880794;29;20135;-78
2024/02/20 11:29:30;;;;;;;27.30;12.50;;;10.80;99.90;;;;;;4862814;29;20523;-79
2024/02/20 11:32:11;;;;;;;14.55;7.32;;;11.00;99.90;;;;;;4865865;29;20085;-79
2024/02/20 11:34:41;;;;;;;17.42;9.30;;;11.10;99.90;;;;;;4865001;29;20053;-79
2024/02/20 11:37:10;;;;;;;15.00;7.60;;;11.20;99.90;;;;;;4866134;29;20888;-79
2024/02/20 11:39:39;;;;;;;17.00;8.35;;;11.10;99.90;;;;;;4880823;29;20869;-79
2024/02/20 11:42:06;;;;;;;10.30;5.47;;;11.10;99.90;;;;;;4898904;29;20037;-79
2024/02/20 11:44:37;;;;;;;16.50;6.65;;;11.00;99.90;;;;;;4849921;29;20036;-79
2024/02/20 11:47:06;;;;;;;19.33;7.65;;;11.10;99.90;;;;;;4900272;29;20059;-79
2024/02/20 11:49:34;;;;;;;19.38;6.55;;;11.00;99.90;;;;;;4867334;29;20486;-79
2024/02/20 11:52:07;;;;;;;17.00;6.93;;;10.90;99.90;;;;;;4864778;29;20053;-78
2024/02/20 11:54:34;;;;;;;11.02;6.00;;;10.80;99.90;;;;;;4878110;29;20180;-78
2024/02/20 11:57:03;;;;;;;17.80;6.35;;;10.80;99.90;;;;;;4865450;29;20052;-78
2024/02/20 11:59:40;;;;;;;18.38;10.05;;;10.80;99.90;;;;;;4873641;29;20526;-79
2024/02/20 12:02:08;;;;;;;23.55;9.07;;;10.70;99.90;;;;;;4896178;29;20049;-78
2024/02/20 12:04:35;;;;;;;13.82;7.40;;;10.70;99.90;;;;;;4896188;29;20183;-78
2024/02/20 12:07:09;;;;;;;15.68;6.00;;;10.60;99.90;;;;;;4880008;29;20058;-78
2024/02/20 12:09:37;;;;;;;24.00;7.32;;;10.10;99.90;;;;;;4865751;29;20052;-78
2024/02/20 12:12:04;;;;;;;18.63;7.63;;;10.70;99.90;;;;;;4847932;29;20136;-77
2024/02/20 12:14:33;;;;;;;25.88;8.90;;;10.60;99.90;;;;;;4878816;29;20135;-79
2024/02/20 12:17:02;;;;;;;12.05;4.57;;;10.60;99.90;;;;;;4866548;29;20365;-79
2024/02/20 12:19:31;;;;;;;21.48;8.30;;;10.60;99.90;;;;;;4880368;29;20488;-78
2024/02/20 12:22:03;;;;;;;9.80;3.97;;;10.80;99.90;;;;;;4872894;29;20515;-78
2024/02/20 12:24:31;;;;;;;19.88;7.70;;;10.80;99.90;;;;;;4881697;29;20139;-79
2024/02/20 12:26:58;;;;;;;27.38;7.32;;;10.90;99.90;;;;;;4873109;29;20476;-78
2024/02/20 12:29:25;;;;;;;14.57;5.32;;;10.90;99.90;;;;;;4883423;29;20053;-79
2024/02/20 12:31:52;;;;;;;12.15;5.90;;;11.00;99.90;;;;;;4875383;29;20124;-78
2024/02/20 12:34:20;;;;;;;14.77;5.00;;;10.90;99.90;;;;;;4898644;29;20068;-78
2024/02/20 12:36:51;;;;;;;11.80;3.25;;;10.80;99.90;;;;;;4877898;29;20056;-79
2024/02/20 12:39:19;;;;;;;14.88;4.75;;;10.80;99.90;;;;;;4868370;29;20051;-79
2024/02/20 12:41:47;;;;;;;15.30;6.45;;;10.80;99.90;;;;;;4899791;29;20411;-78
2024/02/20 12:44:14;;;;;;;16.33;6.30;;;10.70;99.90;;;;;;4879604;29;20153;-78
2024/02/20 12:46:42;;;;;;;9.82;3.72;;;10.60;99.90;;;;;;4895242;29;20056;-78
2024/02/20 12:49:10;;;;;;;17.83;5.75;;;10.70;99.90;;;;;;4865724;29;20055;-78
2024/02/20 12:51:37;;;;;;;14.90;4.18;;;10.60;99.90;;;;;;4863114;29;20045;-79
2024/02/20 12:54:04;;;;;;;13.73;4.78;;;10.70;99.90;;;;;;4901320;29;20064;-78